Flight Track Log - Related Links

Times and Time Zones

All times are in EST time to prevent confusion due to time zone crossing. See the SWA1787 flight status page for this flight to view local times or setup timezone preferences in your user account.

Time Position Orientation Groundspeed Altitude Reporting Facility
EST Latitude Longitude Course Direction KTS MPH feet Rate Location/Type
Fri 12:23:00 AM 39.2623 -117.2628 132° Southeast  Level Estimated
Fri 12:24:00 AM 39.2233 -117.2482 164° South  Level FlightAware Approximate
Fri 12:25:00 AM 39.1843 -117.2336 164° South  Level FlightAware Approximate
Fri 12:26:00 AM 39.1453 -117.2190 164° South  Level FlightAware Approximate
Fri 12:27:00 AM 39.1400 -117.1670 122° Southeast  Level Estimated
Fri 12:28:00 AM 39.1348 -117.1151 134° Southeast  Level Estimated
Fri 12:29:00 AM 39.0960 -117.0994 163° South  Level FlightAware Approximate
Fri 12:30:00 AM 39.0573 -117.0837 163° South  Level FlightAware Approximate
Fri 12:31:00 AM 39.0185 -117.0681 163° South  Level FlightAware Approximate
Fri 12:32:00 AM 38.9797 -117.0524 163° South  Level FlightAware Approximate
Fri 12:33:00 AM 38.9409 -117.0368 163° South  Level FlightAware Approximate
Fri 12:34:00 AM 38.9361 -116.9849 122° Southeast  Level Estimated
Fri 12:35:00 AM 38.9312 -116.9331 122° Southeast  Level Estimated
Fri 12:36:00 AM 38.9263 -116.8813 141° Southeast  Level Estimated
Fri 12:37:00 AM 38.9213 -116.8294 122° Southeast  Level Estimated
Fri 12:38:00 AM 38.9164 -116.7776 109° East  Level Estimated
Fri 12:39:00 AM 38.8775 -116.7622 163° South  Level FlightAware Approximate
Fri 12:40:00 AM 38.8387 -116.7468 163° South  Level FlightAware Approximate
Fri 12:41:00 AM 38.8339 -116.6950 112° Southeast  Level Estimated
Fri 12:42:00 AM 38.8291 -116.6433 90° East  Level Estimated
Fri 12:43:00 AM 38.8242 -116.5915 111° Southeast  Level Estimated
Fri 12:44:00 AM 38.7858 -116.5744 161° South  Level FlightAware Approximate
Fri 12:45:00 AM 38.7474 -116.5574 161° South  Level FlightAware Approximate
Fri 12:46:00 AM 38.7090 -116.5404 161° South  Level FlightAware Approximate
Fri 12:47:00 AM 38.7044 -116.4887 90° East  Level Estimated
Fri 12:48:00 AM 38.6997 -116.4369 90° East  Level Estimated
Fri 12:49:00 AM 38.6951 -116.3852 90° East  Level Estimated
Fri 12:50:00 AM 38.6568 -116.3677 160° South  Level FlightAware Approximate
Fri 12:51:00 AM 38.6186 -116.3501 160° South  Level FlightAware Approximate
Fri 12:52:00 AM 38.6141 -116.2984 99° East  Level Estimated
Fri 12:53:00 AM 38.5797 -116.2816 159° South  Level FlightAware Approximate
Fri 12:54:00 AM 38.5757 -116.2349 95° East  Level Estimated
Fri 12:55:00 AM 38.5420 -116.2158 156° South  Level FlightAware Approximate
Fri 12:56:00 AM 38.5084 -116.1967 156° South  Level FlightAware Approximate
Fri 12:57:00 AM 38.4748 -116.1776 156° South  Level FlightAware Approximate
Fri 12:58:00 AM 38.4412 -116.1586 156° South  Level FlightAware Approximate
Fri 12:59:00 AM 38.4075 -116.1395 156° South  Level FlightAware Approximate
Fri 01:00:00 AM 38.4038 -116.0928 96° East  Level Estimated
Fri 01:01:00 AM 38.3708 -116.0721 154° Southeast  Level FlightAware Approximate
Fri 01:02:00 AM 38.3378 -116.0514 154° Southeast  Level FlightAware Approximate
Fri 01:03:00 AM 38.3048 -116.0307 154° Southeast  Level FlightAware Approximate
Fri 01:04:00 AM 38.3013 -115.9841 90° East  Level Estimated
Fri 01:05:00 AM 38.2977 -115.9374 North  Level Estimated
Fri 01:06:00 AM 38.2646 -115.9169 154° Southeast  Level FlightAware Approximate
Fri 01:07:00 AM 38.2611 -115.8702 279° West  Level Estimated
Fri 01:08:00 AM 38.2273 -115.8519 157° South  Level FlightAware Approximate
Fri 01:09:00 AM 38.1934 -115.8335 157° South  Level FlightAware Approximate
Fri 01:10:00 AM 38.1900 -115.7869 270° West  Level Estimated
Fri 01:11:00 AM 38.1866 -115.7403 270° West  Level Estimated
Fri 01:12:00 AM 38.1517 -115.7258 162° South  Level FlightAware Approximate
Fri 01:13:00 AM 38.1167 -115.7112 162° South  Level FlightAware Approximate
Fri 01:14:00 AM 38.1134 -115.6646 270° West  Level Estimated
Fri 01:15:00 AM 38.1101 -115.6181 270° West  Level Estimated
Fri 01:16:00 AM 38.1068 -115.5715 270° West  Level Estimated
Fri 01:17:00 AM 38.1035 -115.5250 270° West  Level Estimated
Fri 01:18:00 AM 38.0671 -115.5181 172° South  Level FlightAware Approximate
Fri 01:19:00 AM 38.0307 -115.5112 172° South  Level FlightAware Approximate
Fri 01:20:00 AM 38.0276 -115.4647 270° West  Level Estimated
Fri 01:21:00 AM 38.0244 -115.4182 270° West  Level Estimated
Fri 01:22:00 AM 38.0211 -115.3716 270° West  Level Estimated
Fri 01:23:00 AM 38.0179 -115.3251 270° West  Level Estimated
Fri 01:24:00 AM 38.0147 -115.2786 270° West  Level Estimated
Fri 01:25:00 AM 38.0114 -115.2321 270° West  Level Estimated
Fri 01:26:00 AM 38.0081 -115.1856 270° West  Level Estimated
Fri 01:27:00 AM 38.0048 -115.1391 270° West  Level Estimated
Fri 01:28:00 AM 38.0015 -115.0926 270° West  Level Estimated
Fri 01:29:00 AM 37.9981 -115.0461 270° West  Level Estimated
Fri 01:30:00 AM 37.9948 -114.9996 270° West  Level Estimated
Fri 01:31:00 AM 37.9914 -114.9532 270° West  Level Estimated
Fri 01:32:00 AM 37.9880 -114.9067 270° West  Level Estimated
Fri 01:33:00 AM 37.9846 -114.8602 270° West  Level Estimated
Fri 01:34:00 AM 37.9811 -114.8138 270° West  Level Estimated
Fri 01:35:00 AM 37.9777 -114.7673 270° West  Level Estimated
Fri 01:36:00 AM 37.9742 -114.7208 270° West  Level Estimated
Fri 01:37:00 AM 37.9707 -114.6744 270° West  Level Estimated
Fri 01:38:00 AM 37.9672 -114.6279 270° West  Level Estimated
Fri 01:39:00 AM 37.9637 -114.5815 270° West  Level Estimated
Fri 01:40:00 AM 37.9601 -114.5350 270° West  Level Estimated
Fri 01:41:00 AM 37.9566 -114.4886 270° West  Level Estimated
Fri 01:42:00 AM 37.9530 -114.4422 270° West  Level Estimated
Fri 01:43:00 AM 37.9494 -114.3957 270° West  Level Estimated
Fri 01:44:00 AM 37.9458 -114.3493 270° West  Level Estimated
Fri 01:45:00 AM 37.9421 -114.3029 270° West  Level Estimated
Fri 01:46:00 AM 37.9385 -114.2565 270° West  Level Estimated
Fri 01:47:00 AM 37.9348 -114.2101 270° West  Level Estimated
Fri 01:48:00 AM 37.9311 -114.1637 270° West  Level Estimated
Fri 01:49:00 AM 37.9274 -114.1173 270° West  Level Estimated
Fri 01:50:00 AM 37.9237 -114.0709 270° West  Level Estimated
Fri 01:51:00 AM 37.9199 -114.0245 270° West  Level Estimated
Fri 01:52:00 AM 37.9078 -113.8756 96° East  Level Estimated
Fri 01:53:00 AM 37.8955 -113.7268 96° East  Level Estimated
Fri 01:54:00 AM 37.8829 -113.5776 96° East  Level Estimated
Fri 01:55:00 AM 37.8702 -113.4284 96° East  Level Estimated
Fri 01:56:00 AM 37.8572 -113.2793 96° East  Level Estimated
Fri 01:57:00 AM 37.8441 -113.1302 96° East  Level Estimated
Fri 01:58:00 AM 37.8308 -112.9812 96° East  Level Estimated
Fri 01:59:00 AM 37.8175 -112.8341 96° East  Level Estimated
Fri 02:00:00 AM 37.8040 -112.6870 97° East  Level Estimated
Fri 02:01:00 AM 37.7903 -112.5400 97° East  Level Estimated
Fri 02:02:00 AM 37.7764 -112.3930 97° East  Level Estimated
Fri 02:03:00 AM 37.7623 -112.2461 97° East  Level Estimated
Fri 02:04:00 AM 37.7481 -112.0993 97° East  Level Estimated
Fri 02:05:00 AM 37.7337 -111.9525 97° East  Level Estimated
Fri 02:06:00 AM 37.7190 -111.8057 97° East  Level Estimated
Fri 02:07:00 AM 37.7043 -111.6590 97° East  Level Estimated
Fri 02:08:00 AM 37.6893 -111.5124 97° East  Level Estimated
Fri 02:09:00 AM 37.6741 -111.3659 97° East  Level Estimated
Fri 02:10:00 AM 37.6588 -111.2194 97° East  Level Estimated
Fri 02:11:00 AM 37.6433 -111.0729 98° East  Level Estimated
Fri 02:12:00 AM 37.6276 -110.9265 98° East  Level Estimated
Fri 02:13:00 AM 37.6117 -110.7802 98° East  Level Estimated
Fri 02:14:00 AM 37.5956 -110.6339 98° East  Level Estimated
Fri 02:15:00 AM 37.5794 -110.4878 98° East  Level Estimated
Fri 02:16:00 AM 37.5630 -110.3416 98° East  Level Estimated
Fri 02:17:00 AM 37.5464 -110.1954 98° East  Level Estimated
Fri 02:18:00 AM 37.5296 -110.0492 98° East  Level Estimated
Fri 02:19:00 AM 37.5126 -109.9032 98° East  Level Estimated
Fri 02:20:00 AM 37.4954 -109.7571 98° East  Level Estimated
Fri 02:21:00 AM 37.4781 -109.6112 98° East  Level Estimated

Login

Don't have an account? Register now (free) for customized features, flight alerts, and more!